Headrick, Oklahoma
Current Conditions -  °F | °C
As of 7:58 AM on Monday 26 Jan 2015 (Local Time) from KLTS Reporting Station
Clear Clear  
Wind Chill: 33°   Ceiling: Unl
Heat Index: 38°   Visibility: 10mi
Dew Point: 33°   Wind: 6mph
Humidity: 84%   Direction: 260°W
Pressure: 30.18"   Gusts: NA
Location:  34.63°N, 99.14°W
Report Text: KLTS 261358Z AUTO 26005KT 10SM CLR 03/01 A3018 RMK AO2 SLP227 T00310007 $
Loading
Personal Weather Stations






























Interactive Weather Map New forecast layout! Learn more

10-Day Weather Forecast

Advertisements
Track Severe Weather on mobile